createdAt,value
2019-05-17T00:00:00.436Z,31.07
2019-05-17T00:01:16.504Z,32.13
2019-05-17T00:02:29.501Z,29.87
2019-05-17T00:03:42.945Z,31.23
2019-05-17T00:04:56.581Z,29.98
2019-05-17T00:06:10.033Z,33.38
2019-05-17T00:07:23.681Z,32.28
2019-05-17T00:08:38.373Z,29.35
2019-05-17T00:09:52.561Z,32.42
2019-05-17T00:11:06.676Z,30.75
2019-05-17T00:12:20.541Z,31.02
2019-05-17T00:13:34.065Z,31.17
2019-05-17T00:14:48.175Z,29.82
2019-05-17T00:16:01.628Z,33.50
2019-05-17T00:17:17.272Z,30.30
2019-05-17T00:18:30.439Z,29.55
2019-05-17T00:19:46.374Z,29.77
2019-05-17T00:20:59.501Z,31.30
2019-05-17T00:22:13.725Z,32.63
2019-05-17T00:23:27.162Z,33.38
2019-05-17T00:24:40.806Z,32.42
2019-05-17T00:25:56.335Z,34.40
2019-05-17T00:27:09.627Z,29.63
2019-05-17T00:28:23.081Z,29.57
2019-05-17T00:29:37.217Z,30.88
2019-05-17T00:30:50.885Z,32.40
2019-05-17T00:32:06.463Z,31.57
2019-05-17T00:33:19.784Z,30.10
2019-05-17T00:34:33.439Z,29.52
2019-05-17T00:35:47.053Z,33.42
2019-05-17T00:37:00.717Z,36.33
2019-05-17T00:38:16.725Z,30.85
2019-05-17T00:39:29.533Z,31.97
2019-05-17T00:40:42.982Z,30.20
2019-05-17T00:41:57.299Z,36.55
2019-05-17T00:43:10.869Z,31.00
2019-05-17T00:44:27.150Z,32.33
2019-05-17T00:45:40.421Z,31.37
2019-05-17T00:46:54.111Z,31.52
2019-05-17T00:48:07.593Z,33.50
2019-05-17T00:49:21.229Z,32.42
2019-05-17T00:50:37.938Z,33.60
2019-05-17T00:51:52.568Z,31.85
2019-05-17T00:53:07.222Z,34.92
2019-05-17T00:54:23.172Z,32.98
2019-05-17T00:55:36.726Z,30.77
2019-05-17T00:56:50.453Z,33.53
2019-05-17T00:58:06.668Z,33.78
2019-05-17T00:59:20.741Z,34.55
2019-05-17T01:00:37.250Z,31.57
2019-05-17T01:01:50.386Z,33.42
2019-05-17T01:03:07.063Z,33.75
2019-05-17T01:04:20.632Z,31.30
2019-05-17T01:05:36.661Z,31.73
2019-05-17T01:06:49.706Z,33.08
2019-05-17T01:08:03.164Z,34.98
2019-05-17T01:09:17.152Z,31.15
2019-05-17T01:10:30.687Z,36.60
2019-05-17T01:11:44.320Z,32.88
2019-05-17T01:12:57.788Z,32.15
2019-05-17T01:14:11.991Z,36.58
2019-05-17T01:15:27.347Z,32.00
2019-05-17T01:16:40.865Z,32.38
2019-05-17T01:17:56.265Z,33.80
2019-05-17T01:19:09.753Z,30.90
2019-05-17T01:20:23.209Z,34.45
2019-05-17T01:21:38.062Z,34.15
2019-05-17T01:22:51.521Z,32.38
2019-05-17T01:24:06.834Z,36.73
2019-05-17T01:25:20.572Z,36.23
2019-05-17T01:26:34.217Z,32.63
2019-05-17T01:27:49.041Z,36.15
2019-05-17T01:29:02.679Z,38.53
2019-05-17T01:30:17.525Z,32.63
2019-05-17T01:31:32.566Z,30.85
2019-05-17T01:32:46.542Z,36.88
2019-05-17T01:34:00.341Z,35.33
2019-05-17T01:35:13.797Z,33.00
2019-05-17T01:36:27.442Z,33.28
2019-05-17T01:37:42.514Z,33.50
2019-05-17T01:38:57.680Z,36.00
2019-05-17T01:40:11.302Z,31.37
2019-05-17T01:41:26.668Z,31.80
2019-05-17T01:42:40.279Z,34.20
2019-05-17T01:43:54.009Z,33.20
2019-05-17T01:45:08.397Z,35.03
2019-05-17T01:46:23.414Z,33.48
2019-05-17T01:47:37.840Z,31.97
2019-05-17T01:48:51.496Z,33.90
2019-05-17T01:50:08.250Z,30.10
2019-05-17T01:51:21.969Z,31.77
2019-05-17T01:52:36.940Z,33.45
2019-05-17T01:53:50.840Z,32.63
2019-05-17T01:55:06.749Z,32.17
2019-05-17T01:56:20.448Z,31.93
2019-05-17T01:57:36.765Z,33.18
2019-05-17T01:58:49.824Z,34.33
2019-05-17T02:00:07.953Z,34.03
2019-05-17T02:01:21.594Z,35.40
2019-05-17T02:02:39.165Z,34.25
2019-05-17T02:03:53.577Z,38.67
2019-05-17T02:05:07.789Z,35.17
2019-05-17T02:06:21.435Z,36.63
2019-05-17T02:07:37.158Z,33.55
2019-05-17T02:08:50.324Z,35.28
2019-05-17T02:10:07.592Z,35.10
2019-05-17T02:11:21.252Z,35.95
2019-05-17T02:12:37.022Z,34.73
2019-05-17T02:13:50.091Z,35.95
2019-05-17T02:15:06.923Z,33.85
2019-05-17T02:16:20.708Z,34.50
2019-05-17T02:17:37.334Z,36.17
2019-05-17T02:18:51.375Z,36.25
2019-05-17T02:20:07.546Z,36.45
2019-05-17T02:21:21.183Z,35.20
2019-05-17T02:22:36.804Z,35.20
2019-05-17T02:23:50.609Z,37.42
2019-05-17T02:25:09.303Z,34.33
2019-05-17T02:26:22.929Z,35.80
2019-05-17T02:27:41.190Z,35.55
2019-05-17T02:28:52.084Z,39.30
2019-05-17T02:30:07.348Z,36.38
2019-05-17T02:31:24.548Z,36.60
2019-05-17T02:32:36.242Z,37.73
2019-05-17T02:33:53.320Z,31.33
2019-05-17T02:35:05.142Z,34.43
2019-05-17T02:36:22.605Z,32.85
2019-05-17T02:37:34.845Z,31.70
2019-05-17T02:38:48.486Z,43.20
2019-05-17T02:40:07.268Z,33.95
2019-05-17T02:41:17.304Z,37.93
2019-05-17T02:42:33.270Z,33.98
2019-05-17T02:43:47.356Z,38.40
2019-05-17T02:45:03.225Z,35.38
2019-05-17T02:46:16.951Z,37.83
2019-05-17T02:47:33.349Z,38.00
2019-05-17T02:48:45.827Z,35.85
2019-05-17T02:50:00.901Z,33.05
2019-05-17T02:51:14.544Z,32.42
2019-05-17T02:52:28.561Z,38.00
2019-05-17T02:53:43.046Z,33.10
2019-05-17T02:54:56.643Z,36.17
2019-05-17T02:56:13.409Z,33.73
2019-05-17T02:57:26.101Z,33.70
2019-05-17T02:58:39.802Z,36.77
2019-05-17T02:59:53.283Z,34.53
2019-05-17T03:01:06.921Z,38.00
2019-05-17T03:02:26.659Z,36.17
2019-05-17T03:03:35.726Z,38.10
2019-05-17T03:04:52.396Z,38.40
2019-05-17T03:06:04.590Z,38.40
2019-05-17T03:07:18.094Z,35.43
2019-05-17T03:08:34.023Z,39.80
2019-05-17T03:09:46.987Z,37.35
2019-05-17T03:11:03.289Z,40.70
2019-05-17T03:12:15.794Z,35.85
2019-05-17T03:13:32.860Z,37.23
2019-05-17T03:14:45.174Z,35.98
2019-05-17T03:15:58.821Z,35.13
2019-05-17T03:17:13.989Z,36.60
2019-05-17T03:18:27.694Z,36.30
2019-05-17T03:19:43.579Z,37.58
2019-05-17T03:20:56.670Z,35.75
2019-05-17T03:22:12.919Z,43.13
2019-05-17T03:23:25.546Z,37.03
2019-05-17T03:24:39.784Z,37.67
2019-05-17T03:25:54.737Z,35.23
2019-05-17T03:27:08.256Z,35.15
2019-05-17T03:28:23.610Z,39.65
2019-05-17T03:29:37.087Z,36.55
2019-05-17T03:30:55.571Z,37.28
2019-05-17T03:32:08.303Z,36.73
2019-05-17T03:33:26.232Z,37.42
2019-05-17T03:34:37.639Z,37.67
2019-05-17T03:35:56.444Z,35.73
2019-05-17T03:37:07.457Z,36.95
2019-05-17T03:38:22.854Z,36.58
2019-05-17T03:39:36.415Z,33.23
2019-05-17T03:41:11.933Z,35.90
2019-05-17T03:42:05.466Z,33.28
2019-05-17T03:43:19.109Z,36.13
2019-05-17T03:44:33.371Z,35.68
2019-05-17T03:45:47.165Z,34.08
2019-05-17T03:47:02.424Z,33.08
2019-05-17T03:48:15.975Z,35.15
2019-05-17T03:49:29.427Z,38.45
2019-05-17T03:50:43.718Z,36.90
2019-05-17T03:51:57.334Z,34.23
2019-05-17T03:53:13.147Z,38.53
2019-05-17T03:54:26.149Z,31.55
2019-05-17T03:55:42.808Z,33.88
2019-05-17T03:56:55.537Z,34.55
2019-05-17T03:58:12.528Z,34.65
2019-05-17T03:59:25.150Z,34.83
2019-05-17T04:00:38.808Z,35.73
2019-05-17T04:01:53.404Z,33.67
2019-05-17T04:03:07.047Z,34.50
2019-05-17T04:04:22.919Z,35.23
2019-05-17T04:05:36.732Z,33.67
2019-05-17T04:06:52.602Z,36.45
2019-05-17T04:08:08.147Z,33.80
2019-05-17T04:09:22.488Z,37.20
2019-05-17T04:10:36.278Z,36.13
2019-05-17T04:11:49.730Z,41.02
2019-05-17T04:13:04.425Z,32.98
2019-05-17T04:14:18.100Z,36.35
2019-05-17T04:15:32.891Z,36.23
2019-05-17T04:16:46.571Z,31.57
2019-05-17T04:18:03.681Z,34.03
2019-05-17T04:19:16.411Z,36.50
2019-05-17T04:20:32.839Z,31.87
2019-05-17T04:21:45.309Z,32.60
2019-05-17T04:23:03.403Z,32.38
2019-05-17T04:24:15.803Z,33.50
2019-05-17T04:25:29.529Z,36.08
2019-05-17T04:26:43.762Z,34.25
2019-05-17T04:27:57.793Z,31.97
2019-05-17T04:29:13.614Z,34.90
2019-05-17T04:30:26.951Z,35.33
2019-05-17T04:31:43.436Z,34.43
2019-05-17T04:32:55.768Z,36.28
2019-05-17T04:34:13.541Z,37.17
2019-05-17T04:35:28.225Z,36.13
2019-05-17T04:36:43.199Z,33.65
2019-05-17T04:37:57.199Z,35.23
2019-05-17T04:39:13.423Z,34.83
2019-05-17T04:40:25.996Z,34.65
2019-05-17T04:41:46.892Z,32.85
2019-05-17T04:42:54.829Z,35.10
2019-05-17T04:44:08.306Z,32.70
2019-05-17T04:45:22.987Z,36.53
2019-05-17T04:46:36.850Z,34.98
2019-05-17T04:47:52.897Z,35.38
2019-05-17T04:49:05.690Z,31.82
2019-05-17T04:50:19.395Z,34.85
2019-05-17T04:51:32.906Z,32.45
2019-05-17T04:52:48.432Z,32.38
2019-05-17T04:54:03.221Z,31.52
2019-05-17T04:55:17.168Z,31.82
2019-05-17T04:56:33.430Z,31.60
2019-05-17T04:57:46.181Z,32.63
2019-05-17T04:59:03.363Z,31.62
2019-05-17T05:00:16.798Z,32.65
2019-05-17T05:01:33.032Z,35.60
2019-05-17T05:02:45.862Z,32.98
2019-05-17T05:04:03.093Z,32.83
2019-05-17T05:05:18.543Z,38.35
2019-05-17T05:06:32.850Z,35.52
2019-05-17T05:07:46.767Z,34.27
2019-05-17T05:09:02.563Z,32.67
2019-05-17T05:10:15.620Z,32.17
2019-05-17T05:11:29.089Z,31.42
2019-05-17T05:12:43.886Z,36.63
2019-05-17T05:13:57.657Z,35.17
2019-05-17T05:15:12.221Z,33.53
2019-05-17T05:16:25.868Z,34.90
2019-05-17T05:17:42.226Z,36.17
2019-05-17T05:18:56.311Z,35.43
2019-05-17T05:20:12.786Z,34.75
2019-05-17T05:21:25.466Z,38.73
2019-05-17T05:22:42.634Z,31.33
2019-05-17T05:23:55.628Z,39.65
2019-05-17T05:25:09.268Z,37.98
2019-05-17T05:26:22.735Z,31.55
2019-05-17T05:27:36.364Z,35.85
2019-05-17T05:28:49.821Z,38.05
2019-05-17T05:30:03.887Z,33.78
2019-05-17T05:31:17.370Z,34.83
2019-05-17T05:32:31.537Z,32.50
2019-05-17T05:33:45.141Z,35.88
2019-05-17T05:34:58.778Z,33.23
2019-05-17T05:36:12.232Z,33.18
2019-05-17T05:37:25.881Z,31.82
2019-05-17T05:38:39.339Z,33.78
2019-05-17T05:39:54.611Z,34.27
2019-05-17T05:41:08.302Z,35.63
2019-05-17T05:42:22.128Z,32.88
2019-05-17T05:43:35.660Z,31.73
2019-05-17T05:44:52.200Z,33.58
2019-05-17T05:46:05.641Z,30.75
2019-05-17T05:47:19.274Z,32.33
2019-05-17T05:48:32.861Z,33.08
2019-05-17T05:49:46.540Z,34.58
2019-05-17T05:51:03.052Z,34.20
2019-05-17T05:52:15.369Z,33.23
2019-05-17T05:53:28.830Z,30.45
2019-05-17T05:54:43.045Z,31.68
2019-05-17T05:55:56.503Z,28.73
2019-05-17T05:57:12.483Z,31.60
2019-05-17T05:58:25.306Z,30.35
2019-05-17T05:59:38.949Z,31.80
2019-05-17T06:00:53.189Z,31.00
2019-05-17T06:02:07.037Z,34.00
2019-05-17T06:03:22.523Z,32.00
2019-05-17T06:04:36.238Z,29.02
2019-05-17T06:05:49.696Z,32.73
2019-05-17T06:07:03.352Z,30.52
2019-05-17T06:08:16.788Z,29.80
2019-05-17T06:09:31.820Z,31.50
2019-05-17T06:10:45.404Z,29.92
2019-05-17T06:11:59.053Z,34.33
2019-05-17T06:13:13.083Z,28.40
2019-05-17T06:14:27.021Z,29.85
2019-05-17T06:15:42.668Z,27.02
2019-05-17T06:16:55.848Z,29.40
2019-05-17T06:18:09.377Z,29.57
2019-05-17T06:19:23.486Z,29.00
2019-05-17T06:20:36.936Z,32.35
2019-05-17T06:21:52.025Z,31.05
2019-05-17T06:23:05.613Z,30.40
2019-05-17T06:24:19.257Z,27.42
2019-05-17T06:25:34.044Z,28.60
2019-05-17T06:26:49.651Z,28.77
2019-05-17T06:28:03.111Z,31.10
2019-05-17T06:29:16.841Z,29.98
2019-05-17T06:30:32.400Z,28.92
2019-05-17T06:31:45.731Z,30.72
2019-05-17T06:32:59.453Z,28.95
2019-05-17T06:34:14.250Z,27.00
2019-05-17T06:35:27.969Z,30.57
2019-05-17T06:36:42.363Z,29.07
2019-05-17T06:37:56.986Z,29.02
2019-05-17T06:39:11.751Z,29.25
2019-05-17T06:40:25.351Z,25.65
2019-05-17T06:41:39.012Z,26.07
2019-05-17T06:42:52.633Z,27.62
2019-05-17T06:44:06.277Z,28.52
2019-05-17T06:45:21.921Z,31.20
2019-05-17T06:46:35.094Z,27.27
2019-05-17T06:47:48.633Z,25.60
2019-05-17T06:49:03.071Z,24.98
2019-05-17T06:50:17.283Z,24.95
2019-05-17T06:51:31.658Z,26.70
2019-05-17T06:52:45.233Z,27.42
2019-05-17T06:53:58.880Z,26.82
2019-05-17T06:55:13.022Z,25.88
2019-05-17T06:56:26.844Z,26.40
2019-05-17T06:57:42.839Z,28.00
2019-05-17T06:58:55.766Z,26.80
2019-05-17T07:00:13.962Z,25.35
2019-05-17T07:01:25.248Z,27.40
2019-05-17T07:02:40.230Z,34.43
2019-05-17T07:03:54.017Z,37.20
2019-05-17T07:05:09.898Z,45.55
2019-05-17T07:06:25.199Z,32.50
2019-05-17T07:07:40.559Z,27.37
2019-05-17T07:08:54.101Z,30.48
2019-05-17T07:10:07.618Z,23.85
2019-05-17T07:11:21.274Z,25.45
2019-05-17T07:12:34.721Z,25.20
2019-05-17T07:13:49.594Z,27.77
2019-05-17T07:15:03.101Z,20.88
2019-05-17T07:16:19.583Z,24.65
2019-05-17T07:17:32.386Z,23.98
2019-05-17T07:18:46.029Z,22.77
2019-05-17T07:19:59.817Z,22.70
2019-05-17T07:21:13.633Z,22.62
2019-05-17T07:22:29.484Z,22.30
2019-05-17T07:23:42.460Z,19.45
2019-05-17T07:24:55.945Z,21.65
2019-05-17T07:26:12.009Z,19.67
2019-05-17T07:27:37.953Z,19.30
2019-05-17T07:28:42.030Z,26.02
2019-05-17T07:29:55.481Z,22.40
2019-05-17T07:31:10.134Z,18.52
2019-05-17T07:32:23.701Z,16.87
2019-05-17T07:33:39.698Z,17.57
2019-05-17T07:34:52.515Z,17.67
2019-05-17T07:36:06.153Z,16.67
2019-05-17T07:37:20.298Z,16.45
2019-05-17T07:38:33.940Z,14.15
2019-05-17T07:40:00.926Z,16.05
2019-05-17T07:41:03.980Z,16.00
2019-05-17T07:42:19.435Z,14.93
2019-05-17T07:43:32.804Z,15.58
2019-05-17T07:44:46.269Z,15.70
2019-05-17T07:46:00.528Z,14.95
2019-05-17T07:47:14.181Z,15.85
2019-05-17T07:48:31.150Z,12.93
2019-05-17T07:49:44.227Z,14.30
2019-05-17T07:50:59.379Z,16.50
2019-05-17T07:52:12.998Z,15.50
2019-05-17T07:53:26.658Z,13.80
2019-05-17T07:54:40.385Z,13.30
2019-05-17T07:55:54.024Z,14.10
2019-05-17T07:57:10.263Z,12.50
2019-05-17T07:58:23.133Z,13.53
2019-05-17T07:59:36.588Z,13.62
2019-05-17T08:00:51.326Z,12.07
2019-05-17T08:02:05.049Z,16.35
2019-05-17T08:03:20.945Z,14.83
2019-05-17T08:04:33.887Z,11.65
2019-05-17T08:05:47.600Z,14.40
2019-05-17T08:07:01.066Z,14.20
2019-05-17T08:08:14.701Z,12.47
2019-05-17T08:09:30.097Z,11.63
2019-05-17T08:10:43.609Z,15.20
2019-05-17T08:11:59.595Z,12.80
2019-05-17T08:13:25.680Z,12.60
2019-05-17T08:14:32.909Z,9.85
2019-05-17T08:15:43.302Z,13.28
2019-05-17T08:16:56.756Z,24.55
2019-05-17T08:18:11.067Z,15.48
2019-05-17T08:19:24.764Z,22.35
2019-05-17T08:20:40.095Z,20.60
2019-05-17T08:21:53.802Z,16.85
2019-05-17T08:23:07.488Z,14.58
2019-05-17T08:24:21.275Z,10.85
2019-05-17T08:25:48.745Z,11.75
2019-05-17T08:26:50.294Z,11.35
2019-05-17T08:28:03.993Z,10.05
2019-05-17T08:29:17.445Z,9.65
2019-05-17T08:30:31.119Z,15.58
2019-05-17T08:31:44.566Z,9.83
2019-05-17T08:33:00.762Z,12.20
2019-05-17T08:34:13.370Z,13.25
2019-05-17T08:35:27.002Z,13.00
2019-05-17T08:36:40.708Z,10.40
2019-05-17T08:37:54.392Z,11.22
2019-05-17T08:39:10.125Z,10.90
2019-05-17T08:40:23.202Z,13.55
2019-05-17T08:41:36.655Z,12.18
2019-05-17T08:42:52.030Z,11.85
2019-05-17T08:44:05.480Z,12.00
2019-05-17T08:45:20.581Z,10.45
2019-05-17T08:46:34.250Z,12.10
2019-05-17T08:47:49.865Z,10.53
2019-05-17T08:49:03.097Z,10.60
2019-05-17T08:50:16.753Z,10.53
2019-05-17T08:51:30.619Z,10.65
2019-05-17T08:52:44.331Z,11.28
2019-05-17T08:53:59.856Z,13.03
2019-05-17T08:55:13.153Z,11.78
2019-05-17T08:56:26.614Z,13.60
2019-05-17T08:57:40.425Z,12.60
2019-05-17T08:58:54.017Z,12.53
2019-05-17T09:00:10.605Z,12.85
2019-05-17T09:01:24.182Z,12.70
2019-05-17T09:02:37.574Z,11.20
2019-05-17T09:03:50.737Z,11.18
2019-05-17T09:05:05.073Z,10.00
2019-05-17T09:06:19.883Z,10.82
2019-05-17T09:07:33.450Z,11.22
2019-05-17T09:08:46.565Z,12.00
2019-05-17T09:10:01.686Z,9.63
2019-05-17T09:11:14.817Z,11.00
2019-05-17T09:12:30.090Z,11.40
2019-05-17T09:13:54.556Z,13.10
2019-05-17T09:15:00.446Z,13.98
2019-05-17T09:16:13.261Z,11.20
2019-05-17T09:17:27.281Z,12.33
2019-05-17T09:18:40.372Z,13.95
2019-05-17T09:19:55.469Z,11.68
2019-05-17T09:21:09.721Z,15.28
2019-05-17T09:22:23.941Z,11.40
2019-05-17T09:23:39.685Z,11.43
2019-05-17T09:24:52.994Z,10.90
2019-05-17T09:26:06.075Z,12.30
2019-05-17T09:27:19.863Z,11.45
2019-05-17T09:28:33.065Z,10.50
2019-05-17T09:29:46.526Z,12.23
2019-05-17T09:31:00.041Z,10.23
2019-05-17T09:32:13.619Z,13.32
2019-05-17T09:33:29.828Z,13.93
2019-05-17T09:34:42.653Z,12.13
2019-05-17T09:35:55.735Z,13.55
2019-05-17T09:37:09.870Z,11.83
2019-05-17T09:38:23.145Z,12.07
2019-05-17T09:39:36.551Z,10.68
2019-05-17T09:40:50.502Z,11.33
2019-05-17T09:42:04.220Z,9.80
2019-05-17T09:43:20.562Z,13.25
2019-05-17T09:44:34.169Z,22.70
2019-05-17T09:45:47.276Z,14.38
2019-05-17T09:47:02.061Z,15.95
2019-05-17T09:48:15.166Z,20.48
2019-05-17T09:49:29.928Z,11.85
2019-05-17T09:50:43.114Z,10.53
2019-05-17T09:51:56.492Z,11.33
2019-05-17T09:53:11.854Z,11.15
2019-05-17T09:54:40.824Z,9.45
2019-05-17T09:55:40.017Z,10.65
2019-05-17T09:56:53.447Z,11.18
2019-05-17T09:58:07.058Z,10.18
2019-05-17T09:59:21.054Z,9.83
2019-05-17T10:00:34.183Z,12.03
2019-05-17T10:01:49.494Z,10.60
2019-05-17T10:03:02.393Z,8.50
2019-05-17T10:04:15.840Z,11.28
2019-05-17T10:05:31.181Z,11.80
2019-05-17T10:06:44.033Z,10.38
2019-05-17T10:07:57.100Z,9.68
2019-05-17T10:09:12.172Z,10.85
2019-05-17T10:10:25.243Z,8.80
2019-05-17T10:11:39.957Z,11.93
2019-05-17T10:12:53.174Z,10.05
2019-05-17T10:14:06.606Z,8.55
2019-05-17T10:15:20.719Z,11.03
2019-05-17T10:16:34.402Z,9.53
2019-05-17T10:17:47.470Z,8.23
2019-05-17T10:19:00.942Z,8.33
2019-05-17T10:22:21.028Z,7.62
2019-05-17T10:23:34.388Z,9.15
2019-05-17T10:24:47.418Z,7.80
2019-05-17T10:26:00.821Z,7.97
2019-05-17T10:27:14.780Z,9.35
2019-05-17T10:28:28.205Z,7.62
2019-05-17T10:29:41.261Z,7.28
2019-05-17T10:30:54.671Z,7.15
2019-05-17T10:32:07.710Z,6.67
2019-05-17T10:33:21.122Z,8.08
2019-05-17T10:34:34.159Z,7.28
2019-05-17T10:35:49.555Z,6.55
2019-05-17T10:37:02.810Z,6.30
2019-05-17T10:38:19.349Z,6.35
2019-05-17T10:39:31.930Z,5.70
2019-05-17T10:40:45.354Z,8.75
2019-05-17T10:41:58.843Z,7.75
2019-05-17T10:43:12.254Z,6.75
2019-05-17T10:44:38.886Z,7.53
2019-05-17T10:45:40.677Z,6.83
2019-05-17T10:46:53.728Z,7.37
2019-05-17T10:48:07.144Z,5.03
2019-05-17T10:49:20.293Z,8.83
2019-05-17T10:50:33.776Z,5.80
2019-05-17T10:51:49.243Z,8.65
2019-05-17T10:53:02.219Z,6.97
2019-05-17T10:54:15.278Z,6.28
2019-05-17T10:55:30.217Z,5.92
2019-05-17T10:56:43.507Z,7.00
2019-05-17T10:57:56.930Z,13.55
2019-05-17T10:59:10.052Z,6.87
2019-05-17T11:00:23.478Z,17.52
2019-05-17T11:01:36.607Z,9.13
2019-05-17T11:02:51.202Z,12.20
2019-05-17T11:04:04.255Z,23.40
2019-05-17T11:05:19.936Z,8.68
2019-05-17T11:06:32.433Z,37.33
2019-05-17T11:07:45.926Z,10.40
2019-05-17T11:08:59.554Z,5.50
2019-05-17T11:10:13.027Z,5.42
2019-05-17T11:11:26.523Z,6.40
2019-05-17T11:12:39.954Z,4.53
2019-05-17T11:13:53.191Z,6.20
2019-05-17T11:15:11.467Z,6.45
2019-05-17T11:16:21.424Z,6.37
2019-05-17T11:17:36.764Z,6.15
2019-05-17T11:18:49.814Z,6.15
2019-05-17T11:20:04.394Z,5.78
2019-05-17T11:21:18.410Z,7.17
2019-05-17T11:22:31.838Z,6.17
2019-05-17T11:23:45.340Z,8.25
2019-05-17T11:24:58.761Z,7.85
2019-05-17T11:26:11.912Z,4.17
2019-05-17T11:27:25.344Z,6.03
2019-05-17T11:28:38.377Z,5.85
2019-05-17T11:29:52.255Z,6.90
2019-05-17T11:31:06.536Z,5.45
2019-05-17T11:32:19.958Z,4.10
2019-05-17T11:33:33.014Z,5.05
2019-05-17T11:34:46.438Z,6.50
2019-05-17T11:35:59.488Z,4.28
2019-05-17T11:37:12.902Z,3.95
2019-05-17T11:38:25.970Z,9.70
2019-05-17T11:39:39.439Z,5.67
2019-05-17T11:40:52.942Z,4.47
2019-05-17T11:42:06.356Z,5.62
2019-05-17T11:43:19.862Z,6.00
2019-05-17T11:44:33.337Z,5.37
2019-05-17T11:45:46.376Z,5.20
2019-05-17T11:46:59.781Z,5.08
2019-05-17T11:48:12.829Z,4.87
2019-05-17T11:49:26.234Z,4.92
2019-05-17T11:50:39.332Z,4.75
2019-05-17T11:51:52.746Z,4.20
2019-05-17T11:53:07.062Z,5.12
2019-05-17T11:54:22.103Z,5.60
2019-05-17T11:55:35.454Z,3.65
2019-05-17T11:56:48.887Z,3.67
2019-05-17T11:58:03.534Z,3.83
2019-05-17T11:59:17.220Z,4.60
2019-05-17T12:00:30.254Z,4.87
2019-05-17T12:01:43.704Z,4.70
2019-05-17T12:02:56.769Z,4.75
2019-05-17T12:04:10.282Z,6.58
2019-05-17T12:05:23.645Z,5.47
2019-05-17T12:06:37.243Z,5.17
2019-05-17T12:07:50.589Z,4.83
2019-05-17T12:09:04.946Z,5.37
2019-05-17T12:10:18.053Z,4.35
2019-05-17T12:11:31.460Z,4.00
2019-05-17T12:12:44.556Z,5.67
2019-05-17T12:13:57.930Z,4.37
2019-05-17T12:15:10.941Z,4.75
2019-05-17T12:16:24.491Z,4.30
2019-05-17T12:17:37.866Z,3.40
2019-05-17T12:18:51.456Z,4.45
2019-05-17T12:20:06.428Z,4.50
2019-05-17T12:21:19.956Z,5.45
2019-05-17T12:22:33.298Z,3.83
2019-05-17T12:23:46.703Z,3.47
2019-05-17T12:24:59.740Z,3.37
2019-05-17T12:26:13.163Z,3.25
2019-05-17T12:27:26.210Z,5.12
2019-05-17T12:28:39.731Z,4.83
2019-05-17T12:29:53.100Z,4.15
2019-05-17T12:31:06.695Z,3.25
2019-05-17T12:32:20.071Z,4.33
2019-05-17T12:33:33.625Z,3.90
2019-05-17T12:34:46.970Z,4.05
2019-05-17T12:36:01.128Z,4.03
2019-05-17T12:37:15.063Z,3.40
2019-05-17T12:38:29.209Z,3.52
2019-05-17T12:39:44.530Z,3.83
2019-05-17T12:40:57.535Z,4.85
2019-05-17T12:42:10.947Z,3.72
2019-05-17T12:43:24.478Z,4.20
2019-05-17T12:44:37.857Z,4.03
2019-05-17T12:46:00.079Z,4.80
2019-05-17T12:47:06.183Z,3.45
2019-05-17T12:48:19.959Z,4.53
2019-05-17T12:49:33.261Z,3.30
2019-05-17T12:50:46.623Z,4.05
2019-05-17T12:51:59.634Z,4.78
2019-05-17T12:53:13.016Z,3.47
2019-05-17T12:54:26.018Z,3.42
2019-05-17T12:55:40.749Z,3.25
2019-05-17T12:56:54.098Z,3.17
2019-05-17T12:58:07.695Z,2.75
2019-05-17T12:59:21.062Z,7.67
2019-05-17T13:00:34.626Z,2.80
2019-05-17T13:01:48.009Z,4.35
2019-05-17T13:03:01.376Z,2.92
2019-05-17T13:04:14.363Z,3.37
2019-05-17T13:05:27.742Z,2.50
2019-05-17T13:06:40.856Z,3.05
2019-05-17T13:07:54.461Z,3.40
2019-05-17T13:09:07.810Z,3.22
2019-05-17T13:10:21.409Z,4.28
2019-05-17T13:11:34.742Z,3.12
2019-05-17T13:12:48.343Z,3.33
2019-05-17T13:14:01.330Z,5.25
2019-05-17T13:15:14.703Z,2.72
2019-05-17T13:16:27.694Z,3.77
2019-05-17T13:17:41.062Z,2.60
2019-05-17T13:18:54.060Z,4.75
2019-05-17T13:20:07.964Z,5.20
2019-05-17T13:21:21.348Z,2.83
2019-05-17T13:22:35.110Z,2.65
2019-05-17T13:23:48.461Z,6.08
2019-05-17T13:25:01.836Z,2.98
2019-05-17T13:26:14.830Z,2.55
2019-05-17T13:27:28.205Z,3.92
2019-05-17T13:28:42.826Z,6.58
2019-05-17T13:29:56.450Z,4.60
2019-05-17T13:31:09.806Z,5.10
2019-05-17T13:32:24.120Z,8.78
2019-05-17T13:33:37.266Z,2.70
2019-05-17T13:34:51.098Z,5.70
2019-05-17T13:36:04.220Z,2.52
2019-05-17T13:37:17.592Z,2.08
2019-05-17T13:38:30.587Z,4.17
2019-05-17T13:39:43.946Z,2.95
2019-05-17T13:40:56.934Z,2.60
2019-05-17T13:42:10.701Z,2.37
2019-05-17T13:43:24.154Z,4.17
2019-05-17T13:44:37.599Z,2.92
2019-05-17T13:45:50.969Z,2.37
2019-05-17T13:47:04.554Z,6.75
2019-05-17T13:48:17.934Z,4.55
2019-05-17T13:49:32.935Z,4.17
2019-05-17T13:50:45.938Z,2.60
2019-05-17T13:51:59.313Z,3.55
2019-05-17T13:53:12.565Z,5.15
2019-05-17T13:54:25.956Z,4.70
2019-05-17T13:55:39.264Z,2.27
2019-05-17T13:56:52.849Z,2.95
2019-05-17T13:58:06.205Z,3.20
2019-05-17T13:59:19.809Z,4.45
2019-05-17T14:00:32.890Z,3.12
2019-05-17T14:01:46.269Z,2.52
2019-05-17T14:02:59.270Z,3.52
2019-05-17T14:04:13.175Z,4.62
2019-05-17T14:05:26.534Z,2.42
2019-05-17T14:06:40.119Z,1.98
2019-05-17T14:07:53.469Z,6.40
2019-05-17T14:09:07.224Z,2.70
2019-05-17T14:10:27.710Z,2.45
2019-05-17T14:11:35.564Z,1.82
2019-05-17T14:12:48.926Z,3.10
2019-05-17T14:14:02.372Z,3.22
2019-05-17T14:15:15.413Z,3.47
2019-05-17T14:16:33.758Z,2.22
2019-05-17T14:17:43.590Z,2.87
2019-05-17T14:18:56.963Z,3.50
2019-05-17T14:20:10.255Z,2.05
2019-05-17T14:21:24.771Z,2.90
2019-05-17T14:22:37.771Z,2.25
2019-05-17T14:23:51.301Z,2.27
2019-05-17T14:25:07.231Z,2.90
2019-05-17T14:26:20.810Z,2.20
2019-05-17T14:27:33.820Z,4.70
2019-05-17T14:28:47.227Z,2.50
2019-05-17T14:30:00.236Z,3.37
2019-05-17T14:31:13.630Z,3.08
2019-05-17T14:32:26.613Z,4.78
2019-05-17T14:33:40.098Z,2.37
2019-05-17T14:34:53.464Z,3.17
2019-05-17T14:36:08.701Z,2.17
2019-05-17T14:37:21.948Z,1.90
2019-05-17T14:38:35.790Z,2.50
2019-05-17T14:39:48.893Z,2.00
2019-05-17T14:41:07.896Z,2.33
2019-05-17T14:42:17.025Z,2.50
2019-05-17T14:43:31.893Z,2.72
2019-05-17T14:44:45.074Z,5.65
2019-05-17T14:45:58.463Z,2.45
2019-05-17T14:47:11.469Z,3.70
2019-05-17T14:48:24.919Z,2.42
2019-05-17T14:49:38.201Z,2.45
2019-05-17T14:50:51.819Z,2.65
2019-05-17T14:52:05.186Z,2.47
2019-05-17T14:53:19.455Z,4.03
2019-05-17T14:54:32.440Z,2.33
2019-05-17T14:55:47.978Z,1.87
2019-05-17T14:57:02.310Z,2.15
2019-05-17T14:58:17.332Z,4.33
2019-05-17T14:59:30.305Z,3.05
2019-05-17T15:00:43.675Z,3.35
2019-05-17T15:01:56.713Z,8.83
2019-05-17T15:03:10.094Z,4.22
2019-05-17T15:04:23.456Z,2.27
2019-05-17T15:05:37.048Z,2.72
2019-05-17T15:06:50.398Z,2.85
2019-05-17T15:08:05.435Z,2.30
2019-05-17T15:09:20.537Z,2.90
2019-05-17T15:10:34.011Z,2.40
2019-05-17T15:11:47.555Z,2.92
2019-05-17T15:13:04.995Z,2.75
2019-05-17T15:14:19.540Z,4.60
2019-05-17T15:15:33.028Z,3.58
2019-05-17T15:16:46.102Z,2.50
2019-05-17T15:18:02.263Z,4.35
2019-05-17T15:19:15.281Z,3.60
2019-05-17T15:20:30.662Z,2.05
2019-05-17T15:21:44.011Z,2.72
2019-05-17T15:22:57.669Z,2.60
2019-05-17T15:24:10.824Z,2.37
2019-05-17T15:25:24.386Z,2.80
2019-05-17T15:26:38.761Z,2.33
2019-05-17T15:27:53.379Z,3.50
2019-05-17T15:29:08.026Z,3.40
2019-05-17T15:30:21.873Z,4.15
2019-05-17T15:31:35.225Z,3.77
2019-05-17T15:32:48.821Z,1.95
2019-05-17T15:34:01.833Z,2.20
2019-05-17T15:35:15.206Z,2.08
2019-05-17T15:36:28.197Z,1.72
2019-05-17T15:37:41.586Z,2.85
2019-05-17T15:38:54.591Z,3.22
2019-05-17T15:40:08.130Z,4.10
2019-05-17T15:41:21.537Z,3.95
2019-05-17T15:42:43.773Z,2.30
2019-05-17T15:43:49.969Z,2.47
2019-05-17T15:45:04.525Z,1.95
2019-05-17T15:46:17.517Z,2.00
2019-05-17T15:47:30.893Z,2.75
2019-05-17T15:48:43.946Z,1.60
2019-05-17T15:49:57.372Z,1.77
2019-05-17T15:51:10.780Z,2.30
2019-05-17T15:52:24.384Z,3.15
2019-05-17T15:53:37.764Z,2.62
2019-05-17T15:54:51.327Z,1.80
2019-05-17T15:56:04.689Z,2.20
2019-05-17T15:57:18.287Z,3.05
2019-05-17T15:58:31.364Z,1.98
2019-05-17T15:59:44.735Z,1.87
2019-05-17T16:00:57.742Z,2.12
2019-05-17T16:02:11.138Z,1.60
2019-05-17T16:03:24.483Z,2.85
2019-05-17T16:04:38.079Z,3.22
2019-05-17T16:05:51.434Z,1.70
2019-05-17T16:07:05.084Z,3.58